createdAt,value
2018-10-03T00:29:09.732Z,8.10
2018-10-03T00:31:40.424Z,8.20
2018-10-03T00:37:27.210Z,8.20
2018-10-03T00:39:57.595Z,8.30
2018-10-03T00:42:28.370Z,8.30
2018-10-03T00:44:58.941Z,8.30
2018-10-03T00:50:39.953Z,8.30
2018-10-03T01:34:19.168Z,8.40
2018-10-03T01:40:00.021Z,8.50
2018-10-03T01:42:30.799Z,8.50
2018-10-03T01:45:03.698Z,8.50
2018-10-03T01:47:34.753Z,8.50
2018-10-03T02:05:17.554Z,8.60
2018-10-03T02:30:03.786Z,8.40
2018-10-03T02:32:34.325Z,8.40
2018-10-03T02:35:05.244Z,8.30
2018-10-03T02:37:36.012Z,8.30
2018-10-03T02:40:07.901Z,8.30
2018-10-03T02:42:38.504Z,8.30
2018-10-03T02:45:08.722Z,8.30
2018-10-03T02:47:39.202Z,8.30
2018-10-03T02:50:09.853Z,8.30
2018-10-03T02:52:40.191Z,8.20
2018-10-03T02:55:10.791Z,8.20
2018-10-03T02:57:41.020Z,8.20
2018-10-03T03:00:11.259Z,8.20
2018-10-03T03:02:41.582Z,8.20
2018-10-03T03:05:11.897Z,8.20
2018-10-03T03:07:42.372Z,8.20
2018-10-03T03:10:12.900Z,8.20
2018-10-03T03:12:43.215Z,8.10
2018-10-03T03:15:14.597Z,8.10
2018-10-03T03:17:45.110Z,8.10
2018-10-03T03:20:15.374Z,8.10
2018-10-03T03:22:46.009Z,8.10
2018-10-03T03:25:16.465Z,8.10
2018-10-03T03:27:46.896Z,8.10
2018-10-03T03:30:17.197Z,8.00
2018-10-03T03:32:47.566Z,8.00
2018-10-03T03:35:18.244Z,8.10
2018-10-03T03:37:48.719Z,8.00
2018-10-03T03:40:19.688Z,8.00
2018-10-03T03:42:50.103Z,8.00
2018-10-03T03:45:20.267Z,8.00
2018-10-03T03:47:50.812Z,8.00
2018-10-03T03:50:21.224Z,8.00
2018-10-03T03:52:51.544Z,8.00
2018-10-03T03:55:22.252Z,8.00
2018-10-03T03:57:52.763Z,8.00
2018-10-03T04:00:23.289Z,8.00
2018-10-03T04:02:53.715Z,8.00
2018-10-03T04:05:25.013Z,8.00
2018-10-03T04:07:55.773Z,8.00
2018-10-03T04:10:26.214Z,8.00
2018-10-03T04:12:56.943Z,8.00
2018-10-03T04:15:27.275Z,8.00
2018-10-03T04:17:58.111Z,8.00
2018-10-03T04:20:28.550Z,8.00
2018-10-03T04:22:58.942Z,8.00
2018-10-03T04:25:29.312Z,8.00
2018-10-03T04:27:59.698Z,8.00
2018-10-03T04:30:30.310Z,8.00
2018-10-03T04:33:01.168Z,8.00
2018-10-03T04:35:31.472Z,8.00
2018-10-03T04:38:01.952Z,8.00
2018-10-03T04:40:32.491Z,8.00
2018-10-03T04:43:02.794Z,8.00
2018-10-03T04:45:33.175Z,8.00
2018-10-03T04:48:03.571Z,8.00
2018-10-03T04:50:33.758Z,8.00
2018-10-03T04:53:03.966Z,8.00
2018-10-03T04:55:34.325Z,8.00
2018-10-03T04:58:04.568Z,8.00
2018-10-03T05:00:35.262Z,8.00
2018-10-03T05:03:05.802Z,8.00
2018-10-03T05:05:36.017Z,8.00
2018-10-03T05:08:06.826Z,8.00
2018-10-03T05:10:37.259Z,8.00
2018-10-03T05:13:07.914Z,8.00
2018-10-03T05:15:38.311Z,8.00
2018-10-03T05:18:08.881Z,8.00
2018-10-03T05:20:39.055Z,8.00
2018-10-03T05:23:09.480Z,8.00
2018-10-03T05:25:40.033Z,8.00
2018-10-03T05:28:10.325Z,8.00
2018-10-03T05:30:40.660Z,8.00
2018-10-03T05:33:11.001Z,8.00
2018-10-03T05:35:42.001Z,8.10
2018-10-03T05:38:12.446Z,8.10
2018-10-03T05:40:42.807Z,8.10
2018-10-03T05:43:13.425Z,8.10
2018-10-03T05:45:44.041Z,8.10
2018-10-03T05:48:14.311Z,8.10
2018-10-03T05:50:45.087Z,8.10
2018-10-03T05:53:15.554Z,8.10
2018-10-03T05:55:46.031Z,8.10
2018-10-03T05:58:16.376Z,8.20
2018-10-03T06:00:47.092Z,8.20
2018-10-03T06:03:17.444Z,8.20
2018-10-03T06:05:47.960Z,8.20
2018-10-03T06:08:18.193Z,8.20
2018-10-03T06:10:48.601Z,8.20
2018-10-03T06:13:18.902Z,8.20
2018-10-03T08:53:34.557Z,10.00
2018-10-03T09:23:12.661Z,10.60
2018-10-03T09:26:05.566Z,11.00
2018-10-03T09:28:47.670Z,11.20
2018-10-03T09:31:32.861Z,11.20
2018-10-03T09:34:15.830Z,11.50
2018-10-03T09:40:07.266Z,11.90
2018-10-03T09:42:51.142Z,12.10
2018-10-03T09:45:47.426Z,12.10
2018-10-03T09:48:44.626Z,12.20
2018-10-03T09:54:39.606Z,12.50
2018-10-03T09:57:10.406Z,12.50
2018-10-03T10:34:32.128Z,14.40
2018-10-03T12:30:37.975Z,12.80
2018-10-03T12:33:20.972Z,12.80
